Time;durP1;ratioP1;P1;durP2;ratioP2;P2;SDS_P1;SDS_P2;PMS_P1;PMS_P2;Temp;Humidity;BMP_temperature;BMP_pressure;BME280_temperature;BME280_humidity;BME280_pressure;Samples;Min_cycle;Max_cycle;Signal;HPM_P1;HPM_P2
2023/06/03 00:01:07;;;;;;;11.15;4.32;;;;;;;;;;5009169;28;20431;-71
2023/06/03 00:03:32;;;;;;;8.00;4.15;;;;;;;;;;4990761;28;20037;-71
2023/06/03 00:05:59;;;;;;;8.93;4.22;;;;;;;;;;4990636;28;20559;-71
2023/06/03 00:08:25;;;;;;;13.00;4.97;;;;;;;;;;4990256;28;20092;-72
2023/06/03 00:10:51;;;;;;;12.77;5.65;;;;;;;;;;4990896;28;20038;-71
2023/06/03 00:13:17;;;;;;;10.38;4.40;;;;;;;;;;4991041;28;20405;-71
2023/06/03 00:15:42;;;;;;;8.10;4.35;;;;;;;;;;4989205;28;20034;-72
2023/06/03 00:18:08;;;;;;;10.77;4.38;;;;;;;;;;4983623;28;20030;-71
2023/06/03 00:20:35;;;;;;;18.30;5.75;;;;;;;;;;4986037;28;20038;-72
2023/06/03 00:23:05;;;;;;;11.07;4.22;;;;;;;;;;4990833;28;20032;-71
2023/06/03 00:25:32;;;;;;;6.30;4.15;;;;;;;;;;4986834;28;20078;-71
2023/06/03 00:27:58;;;;;;;13.60;4.35;;;;;;;;;;4987794;28;20492;-70
2023/06/03 00:30:24;;;;;;;10.18;5.32;;;;;;;;;;4974774;28;20518;-71
2023/06/03 00:32:49;;;;;;;8.23;4.40;;;;;;;;;;4987098;28;20038;-71
2023/06/03 00:35:15;;;;;;;9.23;4.30;;;;;;;;;;4989923;28;20033;-71
2023/06/03 00:37:41;;;;;;;8.43;4.47;;;;;;;;;;4989653;28;20080;-71
2023/06/03 00:40:07;;;;;;;11.25;4.18;;;;;;;;;;4983864;28;20560;-71
2023/06/03 00:42:33;;;;;;;9.93;4.72;;;;;;;;;;4994125;28;20054;-71
2023/06/03 00:44:58;;;;;;;9.38;4.43;;;;;;;;;;4989982;28;20230;-71
2023/06/03 00:47:25;;;;;;;10.75;4.07;;;;;;;;;;4991518;28;20048;-71
2023/06/03 00:49:51;;;;;;;9.40;4.18;;;;;;;;;;4990898;28;20034;-71
2023/06/03 00:52:19;;;;;;;8.93;4.03;;;;;;;;;;4991130;28;20022;-71
2023/06/03 00:54:47;;;;;;;7.97;4.43;;;;;;;;;;4991637;28;20547;-71
2023/06/03 00:57:13;;;;;;;9.55;4.10;;;;;;;;;;4990265;28;20030;-73
2023/06/03 00:59:39;;;;;;;7.65;4.10;;;;;;;;;;4985331;28;20572;-70
2023/06/03 01:02:04;;;;;;;7.97;4.30;;;;;;;;;;4991977;28;20117;-71
2023/06/03 01:04:30;;;;;;;7.82;4.28;;;;;;;;;;4991849;28;20121;-71
2023/06/03 01:07:20;;;;;;;9.80;4.40;;;;;;;;;;4990992;28;20046;-71
2023/06/03 01:09:57;;;;;;;9.55;3.88;;;;;;;;;;4992234;28;20503;-71
2023/06/03 01:12:43;;;;;;;10.07;4.40;;;;;;;;;;4991887;28;20030;-71
2023/06/03 01:15:18;;;;;;;8.07;4.53;;;;;;;;;;4992144;28;20065;-69
2023/06/03 01:17:47;;;;;;;9.10;4.60;;;;;;;;;;4983828;28;20046;-71
2023/06/03 01:20:14;;;;;;;10.10;4.32;;;;;;;;;;4986745;28;20031;-71
2023/06/03 01:22:44;;;;;;;12.45;4.55;;;;;;;;;;4990858;28;20117;-71
2023/06/03 01:25:12;;;;;;;11.85;4.80;;;;;;;;;;4992485;28;20073;-70
2023/06/03 01:27:41;;;;;;;10.77;4.68;;;;;;;;;;4982321;28;20080;-71
2023/06/03 01:30:13;;;;;;;10.32;4.88;;;;;;;;;;4991377;28;20060;-70
2023/06/03 01:32:41;;;;;;;7.15;4.05;;;;;;;;;;4992505;28;20050;-71
2023/06/03 01:35:10;;;;;;;8.02;3.65;;;;;;;;;;4990862;28;20526;-71
2023/06/03 01:37:36;;;;;;;7.60;4.07;;;;;;;;;;4991009;28;20042;-71
2023/06/03 01:40:04;;;;;;;6.95;4.13;;;;;;;;;;4991181;28;20057;-70
2023/06/03 01:42:34;;;;;;;6.72;3.92;;;;;;;;;;4990804;28;20038;-70
2023/06/03 01:45:01;;;;;;;7.15;4.32;;;;;;;;;;4991150;28;20407;-71
2023/06/03 01:47:28;;;;;;;9.15;4.03;;;;;;;;;;4991133;28;20077;-71
2023/06/03 01:49:53;;;;;;;8.98;4.10;;;;;;;;;;4989415;28;20031;-70
2023/06/03 01:52:21;;;;;;;10.23;3.88;;;;;;;;;;4991321;28;20049;-71
2023/06/03 01:54:47;;;;;;;14.43;3.85;;;;;;;;;;4988965;28;20093;-71
2023/06/03 01:57:13;;;;;;;9.50;3.70;;;;;;;;;;4991463;28;20026;-70
2023/06/03 01:59:40;;;;;;;7.82;4.15;;;;;;;;;;4989232;28;20530;-69
2023/06/03 02:02:06;;;;;;;7.57;5.00;;;;;;;;;;4989865;28;20034;-70
2023/06/03 02:04:31;;;;;;;7.20;3.78;;;;;;;;;;4992259;28;20101;-71
2023/06/03 02:07:01;;;;;;;8.40;4.25;;;;;;;;;;4991202;28;20074;-70
2023/06/03 02:09:29;;;;;;;6.68;3.80;;;;;;;;;;4988829;28;20034;-69
2023/06/03 02:11:56;;;;;;;9.55;3.90;;;;;;;;;;4990589;28;20523;-70
2023/06/03 02:14:23;;;;;;;7.43;3.75;;;;;;;;;;4988363;28;20046;-70
2023/06/03 02:16:49;;;;;;;8.98;4.10;;;;;;;;;;4987916;28;20159;-71
2023/06/03 02:19:20;;;;;;;10.68;4.57;;;;;;;;;;4988753;28;20050;-71
2023/06/03 02:21:47;;;;;;;7.25;4.15;;;;;;;;;;4989650;28;20090;-70
2023/06/03 02:24:14;;;;;;;13.30;4.15;;;;;;;;;;4989535;28;20027;-71
2023/06/03 02:26:49;;;;;;;7.97;4.43;;;;;;;;;;4989927;28;20045;-72
2023/06/03 02:29:27;;;;;;;11.38;4.30;;;;;;;;;;4988487;28;20192;-70
2023/06/03 02:31:56;;;;;;;6.28;3.40;;;;;;;;;;4988485;28;20046;-70
2023/06/03 02:34:22;;;;;;;7.57;4.40;;;;;;;;;;4989369;28;20447;-70
2023/06/03 02:36:49;;;;;;;11.52;4.45;;;;;;;;;;4988824;28;20022;-70
2023/06/03 02:39:19;;;;;;;6.13;4.00;;;;;;;;;;4988908;28;20105;-70
2023/06/03 02:41:46;;;;;;;10.70;4.05;;;;;;;;;;4990159;28;20042;-70
2023/06/03 02:44:18;;;;;;;6.47;4.30;;;;;;;;;;4988733;28;20026;-71
2023/06/03 02:46:44;;;;;;;7.60;4.25;;;;;;;;;;4989194;28;20046;-71
2023/06/03 02:49:12;;;;;;;6.20;3.97;;;;;;;;;;4989872;28;20037;-71
2023/06/03 02:51:40;;;;;;;6.43;3.97;;;;;;;;;;4990073;28;20045;-70
2023/06/03 02:54:06;;;;;;;8.02;4.00;;;;;;;;;;4988402;28;20388;-71
2023/06/03 02:56:33;;;;;;;7.72;4.13;;;;;;;;;;4987317;28;20135;-71
2023/06/03 02:58:58;;;;;;;13.45;4.80;;;;;;;;;;4990122;28;20500;-70
2023/06/03 03:01:27;;;;;;;9.27;4.05;;;;;;;;;;4990117;28;20412;-71
2023/06/03 03:03:52;;;;;;;7.20;4.10;;;;;;;;;;4987869;28;20034;-70
2023/06/03 03:06:21;;;;;;;7.13;4.43;;;;;;;;;;4988221;28;20190;-70
2023/06/03 03:08:48;;;;;;;6.63;4.07;;;;;;;;;;4988316;28;20030;-70
2023/06/03 03:11:14;;;;;;;7.75;3.95;;;;;;;;;;4988551;28;20185;-70
2023/06/03 03:13:41;;;;;;;5.82;3.63;;;;;;;;;;4990494;28;20056;-71
2023/06/03 03:16:08;;;;;;;8.73;4.32;;;;;;;;;;4986774;28;20030;-70
2023/06/03 03:18:36;;;;;;;7.07;4.07;;;;;;;;;;4987516;28;20499;-70
2023/06/03 03:21:02;;;;;;;16.92;5.10;;;;;;;;;;4986707;28;20057;-70
2023/06/03 03:23:28;;;;;;;19.08;5.68;;;;;;;;;;4986636;28;20026;-70
2023/06/03 03:25:57;;;;;;;9.55;5.35;;;;;;;;;;4986214;28;20488;-70
2023/06/03 03:28:24;;;;;;;7.53;3.92;;;;;;;;;;4985678;28;20188;-70
2023/06/03 03:30:57;;;;;;;11.13;4.68;;;;;;;;;;4986590;28;20416;-70
2023/06/03 03:33:24;;;;;;;8.52;4.05;;;;;;;;;;4975611;28;20171;-71
2023/06/03 03:35:50;;;;;;;6.88;4.13;;;;;;;;;;4989350;28;20046;-71
2023/06/03 03:38:17;;;;;;;5.82;3.95;;;;;;;;;;4988033;28;20523;-71
2023/06/03 03:40:44;;;;;;;9.07;4.32;;;;;;;;;;4988389;28;20443;-71
2023/06/03 03:43:15;;;;;;;12.15;4.65;;;;;;;;;;4987356;28;20073;-71
2023/06/03 03:45:42;;;;;;;11.40;5.05;;;;;;;;;;5019441;28;20038;-70
2023/06/03 03:48:15;;;;;;;10.75;5.00;;;;;;;;;;4985463;28;20019;-71
2023/06/03 03:50:48;;;;;;;17.00;5.75;;;;;;;;;;4988884;28;20491;-71
2023/06/03 03:53:36;;;;;;;9.85;4.65;;;;;;;;;;5019273;28;20038;-70
2023/06/03 03:56:07;;;;;;;15.77;5.10;;;;;;;;;;4986160;28;20046;-71
2023/06/03 03:58:42;;;;;;;10.07;4.63;;;;;;;;;;4986779;28;20034;-71
2023/06/03 04:01:17;;;;;;;11.25;5.05;;;;;;;;;;4985438;28;20077;-70
2023/06/03 04:03:49;;;;;;;10.98;5.60;;;;;;;;;;4984889;28;20089;-70
2023/06/03 04:06:27;;;;;;;14.38;4.90;;;;;;;;;;5001473;28;20057;-71
2023/06/03 04:08:54;;;;;;;11.43;5.32;;;;;;;;;;4991836;28;20112;-70
2023/06/03 04:11:26;;;;;;;16.08;4.72;;;;;;;;;;4986769;28;20026;-71
2023/06/03 04:13:54;;;;;;;7.33;4.37;;;;;;;;;;4990586;28;20058;-70
2023/06/03 04:16:42;;;;;;;11.27;5.57;;;;;;;;;;4988884;28;20030;-69
2023/06/03 04:19:33;;;;;;;11.55;4.88;;;;;;;;;;4986757;28;20038;-70
2023/06/03 04:22:05;;;;;;;7.78;4.50;;;;;;;;;;4986329;28;20266;-71
2023/06/03 04:24:33;;;;;;;14.00;5.78;;;;;;;;;;4991075;28;20050;-71
2023/06/03 04:27:02;;;;;;;9.57;4.88;;;;;;;;;;4989924;28;20038;-71
2023/06/03 04:29:32;;;;;;;12.20;6.13;;;;;;;;;;4992354;28;20114;-71
2023/06/03 04:31:58;;;;;;;10.60;4.88;;;;;;;;;;4993225;28;20049;-71
2023/06/03 04:34:28;;;;;;;13.25;5.68;;;;;;;;;;4992798;28;20038;-71
2023/06/03 04:36:54;;;;;;;9.50;5.38;;;;;;;;;;4992768;28;20034;-71
2023/06/03 04:39:21;;;;;;;10.50;5.20;;;;;;;;;;4975885;28;20038;-72
2023/06/03 04:41:50;;;;;;;10.82;5.57;;;;;;;;;;4986903;28;20196;-71
2023/06/03 04:44:16;;;;;;;9.90;4.82;;;;;;;;;;4976361;28;20027;-70
2023/06/03 04:46:45;;;;;;;12.23;5.57;;;;;;;;;;4992493;28;20033;-69
2023/06/03 04:49:11;;;;;;;9.65;5.18;;;;;;;;;;4993211;28;20030;-70
2023/06/03 04:51:40;;;;;;;11.05;4.97;;;;;;;;;;4992325;28;20030;-70
2023/06/03 04:54:08;;;;;;;7.55;4.60;;;;;;;;;;4992288;28;20519;-71
2023/06/03 04:56:36;;;;;;;8.82;5.00;;;;;;;;;;4985545;28;20134;-71
2023/06/03 04:59:06;;;;;;;8.10;4.90;;;;;;;;;;4992004;28;20089;-71
2023/06/03 05:01:48;;;;;;;8.48;4.95;;;;;;;;;;4991935;28;20061;-71
2023/06/03 05:04:19;;;;;;;11.27;5.68;;;;;;;;;;4991889;28;20578;-72
2023/06/03 05:06:49;;;;;;;8.95;4.72;;;;;;;;;;4993435;28;20038;-70
2023/06/03 05:09:15;;;;;;;9.55;5.32;;;;;;;;;;4991588;28;20137;-71
2023/06/03 05:11:44;;;;;;;10.45;5.13;;;;;;;;;;4991973;28;20026;-71
2023/06/03 05:14:10;;;;;;;12.98;5.10;;;;;;;;;;4991867;28;20026;-70
2023/06/03 05:16:36;;;;;;;10.07;4.82;;;;;;;;;;4990350;28;20459;-70
2023/06/03 05:19:03;;;;;;;10.10;5.20;;;;;;;;;;4984840;28;20037;-71
2023/06/03 05:21:30;;;;;;;10.32;5.13;;;;;;;;;;4992041;28;20057;-71
2023/06/03 05:23:55;;;;;;;14.30;5.53;;;;;;;;;;4991830;28;20026;-70
2023/06/03 05:26:23;;;;;;;14.82;5.20;;;;;;;;;;4991589;28;20040;-70
2023/06/03 05:28:48;;;;;;;13.63;5.68;;;;;;;;;;4991112;28;20022;-70
2023/06/03 05:31:15;;;;;;;19.45;6.55;;;;;;;;;;4990605;28;20115;-70
2023/06/03 05:33:41;;;;;;;17.40;6.15;;;;;;;;;;4990201;28;20038;-71
2023/06/03 05:36:14;;;;;;;16.45;6.20;;;;;;;;;;4974827;28;20022;-70
2023/06/03 05:38:41;;;;;;;13.35;6.32;;;;;;;;;;4991287;28;20034;-70
2023/06/03 05:41:10;;;;;;;16.73;6.53;;;;;;;;;;4992688;28;20034;-70
2023/06/03 05:43:36;;;;;;;16.48;6.47;;;;;;;;;;4992409;28;20117;-70
2023/06/03 05:46:02;;;;;;;15.07;6.53;;;;;;;;;;4993868;28;20019;-71
2023/06/03 05:48:28;;;;;;;16.35;6.63;;;;;;;;;;4992067;28;20484;-70
2023/06/03 05:50:55;;;;;;;13.60;6.15;;;;;;;;;;4992462;28;20026;-70
2023/06/03 05:53:25;;;;;;;19.58;6.38;;;;;;;;;;5022909;28;20083;-71
2023/06/03 05:55:53;;;;;;;12.70;6.40;;;;;;;;;;4992210;28;20026;-71
2023/06/03 05:58:20;;;;;;;8.93;5.38;;;;;;;;;;4992090;28;20084;-70
2023/06/03 06:00:47;;;;;;;9.40;5.47;;;;;;;;;;4991946;28;20034;-70
2023/06/03 06:03:14;;;;;;;11.60;5.75;;;;;;;;;;4992225;28;20068;-70
2023/06/03 06:05:40;;;;;;;11.10;4.95;;;;;;;;;;4993297;28;20030;-70
2023/06/03 06:08:06;;;;;;;15.90;4.82;;;;;;;;;;4991946;28;20567;-70
2023/06/03 06:10:33;;;;;;;8.65;4.72;;;;;;;;;;5024828;28;20041;-71
2023/06/03 06:12:58;;;;;;;8.68;4.93;;;;;;;;;;4991817;28;20022;-69
2023/06/03 06:15:29;;;;;;;8.23;4.20;;;;;;;;;;4991484;28;20034;-71
2023/06/03 06:17:55;;;;;;;9.57;4.78;;;;;;;;;;4991735;28;20066;-70
2023/06/03 06:20:21;;;;;;;9.85;4.50;;;;;;;;;;4989579;28;20033;-70
2023/06/03 06:22:50;;;;;;;13.82;5.25;;;;;;;;;;4991737;28;20031;-70
2023/06/03 06:25:17;;;;;;;8.40;4.63;;;;;;;;;;4991652;28;20118;-70
2023/06/03 06:27:44;;;;;;;6.85;4.32;;;;;;;;;;4989304;28;20551;-71
2023/06/03 06:30:14;;;;;;;13.85;4.93;;;;;;;;;;4991076;28;20027;-71
2023/06/03 06:32:49;;;;;;;6.93;4.30;;;;;;;;;;4991173;28;20030;-70
2023/06/03 06:35:18;;;;;;;8.05;4.93;;;;;;;;;;4991300;28;20060;-70
2023/06/03 06:37:44;;;;;;;9.27;4.78;;;;;;;;;;4990761;28;20030;-70
2023/06/03 06:40:21;;;;;;;8.77;4.82;;;;;;;;;;4989553;28;20038;-76
2023/06/03 06:42:47;;;;;;;13.50;4.90;;;;;;;;;;4991074;28;20081;-76
2023/06/03 06:45:26;;;;;;;7.72;4.60;;;;;;;;;;4988833;28;20073;-75
2023/06/03 06:48:08;;;;;;;9.02;5.10;;;;;;;;;;4975471;28;20081;-74
2023/06/03 06:50:52;;;;;;;10.10;5.07;;;;;;;;;;4988901;28;20041;-74
2023/06/03 06:53:22;;;;;;;7.95;4.90;;;;;;;;;;4991124;28;20030;-75
2023/06/03 06:55:55;;;;;;;12.75;4.93;;;;;;;;;;4991251;28;20117;-74
2023/06/03 06:58:40;;;;;;;10.40;4.53;;;;;;;;;;4992119;28;20057;-73
2023/06/03 07:01:07;;;;;;;7.97;4.43;;;;;;;;;;4989828;28;20053;-73
2023/06/03 07:03:35;;;;;;;15.75;6.03;;;;;;;;;;4991474;28;20097;-74
2023/06/03 07:06:02;;;;;;;18.25;5.20;;;;;;;;;;4991512;28;20041;-73
2023/06/03 07:08:32;;;;;;;8.52;4.70;;;;;;;;;;4991470;28;20121;-73
2023/06/03 07:11:02;;;;;;;10.07;4.85;;;;;;;;;;4991507;28;20030;-72
2023/06/03 07:13:31;;;;;;;10.68;4.80;;;;;;;;;;4991627;28;20102;-71
2023/06/03 07:15:58;;;;;;;11.75;5.10;;;;;;;;;;4989442;28;20018;-72
2023/06/03 07:18:25;;;;;;;9.68;4.95;;;;;;;;;;4990137;28;20031;-74
2023/06/03 07:20:52;;;;;;;7.65;4.78;;;;;;;;;;4989915;28;20384;-72
2023/06/03 07:23:29;;;;;;;9.93;4.65;;;;;;;;;;4990558;28;20034;-73
2023/06/03 07:25:56;;;;;;;7.15;4.22;;;;;;;;;;4999645;28;20559;-73
2023/06/03 07:28:32;;;;;;;13.52;4.40;;;;;;;;;;4988318;28;20061;-72
2023/06/03 07:31:09;;;;;;;8.63;4.25;;;;;;;;;;4989327;28;20087;-74
2023/06/03 07:33:49;;;;;;;8.95;3.97;;;;;;;;;;4990662;28;20034;-73
2023/06/03 07:36:20;;;;;;;7.05;4.07;;;;;;;;;;4991091;28;20026;-71
2023/06/03 07:39:13;;;;;;;5.72;4.10;;;;;;;;;;4972965;28;20373;-71
2023/06/03 07:41:52;;;;;;;10.00;4.45;;;;;;;;;;4990496;28;20108;-72
2023/06/03 07:44:43;;;;;;;11.75;4.10;;;;;;;;;;4990871;28;20484;-73
2023/06/03 07:47:13;;;;;;;6.75;4.25;;;;;;;;;;4986714;28;20038;-71
2023/06/03 07:49:39;;;;;;;8.93;4.45;;;;;;;;;;4992204;28;20050;-73
2023/06/03 07:52:05;;;;;;;8.50;4.28;;;;;;;;;;4989524;28;20173;-72
2023/06/03 07:54:34;;;;;;;11.32;4.65;;;;;;;;;;4987664;28;20033;-72
2023/06/03 07:57:01;;;;;;;9.43;4.75;;;;;;;;;;4989024;28;20112;-71
2023/06/03 07:59:27;;;;;;;6.95;4.05;;;;;;;;;;4988747;28;20153;-72
2023/06/03 08:01:57;;;;;;;6.75;4.63;;;;;;;;;;4989299;28;20129;-73
2023/06/03 08:04:28;;;;;;;6.45;4.13;;;;;;;;;;4987364;28;20042;-74
2023/06/03 08:06:55;;;;;;;9.00;4.28;;;;;;;;;;4989810;28;20096;-73
2023/06/03 08:09:34;;;;;;;5.03;3.63;;;;;;;;;;4990847;28;20064;-73
2023/06/03 08:12:08;;;;;;;7.47;3.90;;;;;;;;;;4982126;28;20496;-73
2023/06/03 08:14:39;;;;;;;7.00;4.22;;;;;;;;;;4988947;28;20019;-73
2023/06/03 08:17:10;;;;;;;7.13;4.30;;;;;;;;;;4990151;28;20042;-72
2023/06/03 08:19:36;;;;;;;7.47;4.75;;;;;;;;;;4991097;28;20061;-73
2023/06/03 08:22:12;;;;;;;8.48;3.88;;;;;;;;;;4988746;28;20399;-73
2023/06/03 08:24:38;;;;;;;10.55;4.38;;;;;;;;;;4988929;28;20035;-72
2023/06/03 08:27:04;;;;;;;10.82;3.72;;;;;;;;;;4990609;28;20036;-73
2023/06/03 08:29:30;;;;;;;7.93;4.65;;;;;;;;;;4990712;28;20038;-73
2023/06/03 08:31:55;;;;;;;10.43;4.47;;;;;;;;;;4991465;28;20538;-73
2023/06/03 08:34:21;;;;;;;7.30;3.90;;;;;;;;;;4991516;28;20053;-71
2023/06/03 08:36:46;;;;;;;12.70;4.90;;;;;;;;;;4991004;28;20037;-73
2023/06/03 08:39:12;;;;;;;8.98;4.13;;;;;;;;;;4993293;28;20153;-72
2023/06/03 08:41:42;;;;;;;10.75;4.30;;;;;;;;;;4996700;28;20023;-73
2023/06/03 08:44:28;;;;;;;6.28;3.67;;;;;;;;;;4993451;28;20053;-72
2023/06/03 08:47:26;;;;;;;10.80;3.83;;;;;;;;;;4990629;28;20169;-73
2023/06/03 08:50:08;;;;;;;7.30;3.88;;;;;;;;;;4990145;28;20064;-73
2023/06/03 08:52:37;;;;;;;5.57;3.47;;;;;;;;;;4988847;28;20026;-73
2023/06/03 08:55:05;;;;;;;7.72;3.42;;;;;;;;;;4990834;28;20504;-73
2023/06/03 08:57:38;;;;;;;10.40;5.10;;;;;;;;;;4990984;28;20055;-72
2023/06/03 09:00:06;;;;;;;6.95;3.63;;;;;;;;;;4993182;28;20392;-73
2023/06/03 09:02:32;;;;;;;7.78;3.65;;;;;;;;;;4992470;28;20022;-72
2023/06/03 09:05:03;;;;;;;7.10;3.80;;;;;;;;;;4987715;28;20093;-71
2023/06/03 09:07:30;;;;;;;8.25;3.67;;;;;;;;;;4992997;28;20044;-72
2023/06/03 09:09:57;;;;;;;5.10;3.30;;;;;;;;;;4993844;28;20054;-73
2023/06/03 09:12:27;;;;;;;7.10;3.47;;;;;;;;;;4994119;28;20022;-72
2023/06/03 09:14:58;;;;;;;11.02;4.30;;;;;;;;;;4993959;28;20031;-72
2023/06/03 09:17:24;;;;;;;6.68;3.67;;;;;;;;;;4993998;28;20041;-73
2023/06/03 09:19:52;;;;;;;7.68;3.75;;;;;;;;;;4976688;28;20022;-72
2023/06/03 09:22:18;;;;;;;4.72;3.38;;;;;;;;;;4993892;28;20058;-72
2023/06/03 09:24:47;;;;;;;7.22;3.58;;;;;;;;;;4992657;28;20027;-73
2023/06/03 09:27:12;;;;;;;8.50;3.70;;;;;;;;;;4993717;28;20113;-72
2023/06/03 09:29:38;;;;;;;8.27;4.18;;;;;;;;;;4993014;28;20452;-72
2023/06/03 09:32:07;;;;;;;7.05;3.90;;;;;;;;;;4993956;28;20411;-73
2023/06/03 09:34:35;;;;;;;6.38;3.30;;;;;;;;;;4994099;28;20443;-72
2023/06/03 09:37:09;;;;;;;5.97;3.67;;;;;;;;;;4992371;28;20558;-73
2023/06/03 09:39:37;;;;;;;7.43;4.07;;;;;;;;;;4990999;28;20033;-73
2023/06/03 09:42:03;;;;;;;5.70;3.45;;;;;;;;;;4990302;28;20027;-74
2023/06/03 09:44:43;;;;;;;7.20;3.50;;;;;;;;;;4991347;28;20045;-73
2023/06/03 09:47:11;;;;;;;8.07;3.67;;;;;;;;;;4984043;28;20034;-73
2023/06/03 09:49:37;;;;;;;5.38;3.65;;;;;;;;;;4991384;28;20076;-75
2023/06/03 09:52:07;;;;;;;5.32;3.45;;;;;;;;;;4992851;28;20046;-71
2023/06/03 09:54:34;;;;;;;8.38;3.67;;;;;;;;;;4994229;28;20155;-73
2023/06/03 09:57:12;;;;;;;6.65;3.50;;;;;;;;;;4993704;28;20097;-73
2023/06/03 09:59:42;;;;;;;6.90;3.40;;;;;;;;;;4992874;28;20041;-72
2023/06/03 10:02:12;;;;;;;7.18;3.78;;;;;;;;;;4993965;28;20034;-72
2023/06/03 10:04:40;;;;;;;12.18;4.40;;;;;;;;;;4992615;28;20396;-74
2023/06/03 10:07:12;;;;;;;5.88;3.67;;;;;;;;;;4988597;28;20026;-72
2023/06/03 10:09:38;;;;;;;5.07;3.47;;;;;;;;;;4990823;28;20074;-72
2023/06/03 10:12:05;;;;;;;13.35;3.90;;;;;;;;;;4992723;28;20129;-72
2023/06/03 10:14:31;;;;;;;9.65;3.45;;;;;;;;;;4992417;28;20128;-73
2023/06/03 10:17:08;;;;;;;4.72;3.13;;;;;;;;;;4992655;28;20109;-72
2023/06/03 10:19:35;;;;;;;7.43;3.10;;;;;;;;;;4990816;28;20030;-72
2023/06/03 10:22:03;;;;;;;5.32;3.30;;;;;;;;;;4991712;28;20033;-74
2023/06/03 10:24:34;;;;;;;5.85;3.33;;;;;;;;;;4991953;28;20046;-73
2023/06/03 10:27:04;;;;;;;6.57;3.22;;;;;;;;;;4993203;28;20046;-72
2023/06/03 10:29:32;;;;;;;5.93;3.38;;;;;;;;;;4992083;28;20368;-72
2023/06/03 10:32:03;;;;;;;7.25;3.63;;;;;;;;;;4991800;28;20035;-72
2023/06/03 10:34:29;;;;;;;6.05;3.20;;;;;;;;;;4992692;28;20484;-72
2023/06/03 10:36:57;;;;;;;6.75;3.65;;;;;;;;;;4992601;28;20383;-73
2023/06/03 10:39:25;;;;;;;12.00;3.83;;;;;;;;;;4990945;28;20038;-72
2023/06/03 10:41:53;;;;;;;4.88;3.20;;;;;;;;;;4991196;28;20052;-73
2023/06/03 10:44:19;;;;;;;7.40;3.53;;;;;;;;;;4988300;28;20433;-73
2023/06/03 10:47:22;;;;;;;8.93;3.70;;;;;;;;;;4991602;28;20026;-72
2023/06/03 10:50:06;;;;;;;5.53;3.22;;;;;;;;;;4982756;28;20557;-72
2023/06/03 10:52:57;;;;;;;6.45;2.75;;;;;;;;;;4986112;28;20026;-72
2023/06/03 10:55:44;;;;;;;6.60;3.17;;;;;;;;;;4986260;28;20125;-72
2023/06/03 10:58:30;;;;;;;7.25;3.38;;;;;;;;;;4990859;28;20053;-71
2023/06/03 11:00:56;;;;;;;6.28;3.30;;;;;;;;;;4992457;28;20077;-72
2023/06/03 11:03:23;;;;;;;9.98;3.28;;;;;;;;;;4992728;28;20500;-73
2023/06/03 11:05:50;;;;;;;12.82;5.05;;;;;;;;;;4992073;28;20500;-71
2023/06/03 11:08:53;;;;;;;7.63;3.38;;;;;;;;;;4992143;28;20496;-73
2023/06/03 11:11:44;;;;;;;6.57;3.53;;;;;;;;;;4992653;28;20034;-72
2023/06/03 11:14:26;;;;;;;11.35;4.00;;;;;;;;;;4992565;28;20053;-73
2023/06/03 11:17:01;;;;;;;6.60;3.47;;;;;;;;;;4984898;28;20058;-73
2023/06/03 11:19:37;;;;;;;7.63;3.60;;;;;;;;;;4991112;28;20042;-72
2023/06/03 11:22:07;;;;;;;5.80;3.60;;;;;;;;;;4991084;28;20080;-73
2023/06/03 11:24:42;;;;;;;8.10;3.95;;;;;;;;;;4990368;28;20052;-73
2023/06/03 11:27:14;;;;;;;6.72;3.78;;;;;;;;;;4992307;28;20058;-74
2023/06/03 11:29:46;;;;;;;5.35;3.33;;;;;;;;;;4992228;28;20117;-72
2023/06/03 11:32:25;;;;;;;7.07;3.10;;;;;;;;;;4992586;28;20030;-75
2023/06/03 11:35:11;;;;;;;6.78;3.78;;;;;;;;;;4991923;28;20116;-75
2023/06/03 11:37:40;;;;;;;6.78;3.30;;;;;;;;;;4991193;28;20110;-74
2023/06/03 11:40:07;;;;;;;7.47;4.03;;;;;;;;;;4992247;28;20026;-74
2023/06/03 11:42:51;;;;;;;4.97;3.40;;;;;;;;;;4991563;28;20079;-74
2023/06/03 11:45:29;;;;;;;6.20;3.08;;;;;;;;;;4984435;28;20125;-74
2023/06/03 11:48:01;;;;;;;5.95;3.33;;;;;;;;;;4991019;28;20174;-74
2023/06/03 11:50:48;;;;;;;5.43;2.80;;;;;;;;;;4984988;28;20463;-73
2023/06/03 11:53:36;;;;;;;6.30;3.55;;;;;;;;;;4991847;28;20034;-74
2023/06/03 11:56:10;;;;;;;4.97;3.00;;;;;;;;;;4992152;28;20046;-75
2023/06/03 11:58:37;;;;;;;7.30;3.00;;;;;;;;;;4991284;28;20034;-73
2023/06/03 12:01:08;;;;;;;7.20;3.30;;;;;;;;;;4991986;28;20034;-76
2023/06/03 12:03:36;;;;;;;8.35;3.10;;;;;;;;;;4990470;28;20085;-74
2023/06/03 12:06:04;;;;;;;5.82;3.15;;;;;;;;;;4991620;28;20483;-75
2023/06/03 12:08:49;;;;;;;6.55;3.42;;;;;;;;;;4992242;28;20031;-75
2023/06/03 12:11:26;;;;;;;6.43;3.05;;;;;;;;;;4989767;28;20487;-73
2023/06/03 12:13:52;;;;;;;5.25;3.13;;;;;;;;;;4992012;28;20066;-73
2023/06/03 12:16:33;;;;;;;6.05;3.05;;;;;;;;;;4990494;28;20057;-75
2023/06/03 12:19:01;;;;;;;6.43;3.13;;;;;;;;;;4990126;28;20045;-75
2023/06/03 12:21:27;;;;;;;6.50;3.30;;;;;;;;;;4989372;28;20023;-71
2023/06/03 12:23:53;;;;;;;4.00;2.95;;;;;;;;;;4992127;28;20051;-75
2023/06/03 12:26:20;;;;;;;5.65;3.22;;;;;;;;;;4989485;28;20432;-72
2023/06/03 12:28:46;;;;;;;3.97;2.83;;;;;;;;;;4989928;28;20049;-74
2023/06/03 12:31:16;;;;;;;4.95;3.20;;;;;;;;;;4995590;28;20026;-75
2023/06/03 12:33:43;;;;;;;10.18;3.20;;;;;;;;;;4995541;28;20121;-75
2023/06/03 12:36:09;;;;;;;6.13;3.13;;;;;;;;;;4995587;28;20052;-74
2023/06/03 12:38:58;;;;;;;6.18;3.17;;;;;;;;;;4995513;28;20480;-75
2023/06/03 12:41:25;;;;;;;4.85;3.10;;;;;;;;;;4995537;28;20428;-75
2023/06/03 12:44:04;;;;;;;6.32;3.97;;;;;;;;;;4995726;28;20292;-74
2023/06/03 12:46:31;;;;;;;5.22;3.28;;;;;;;;;;4995606;28;20073;-74
2023/06/03 12:49:12;;;;;;;7.05;3.00;;;;;;;;;;4987569;28;20026;-75
2023/06/03 12:51:38;;;;;;;7.22;3.45;;;;;;;;;;4999096;28;20038;-73
2023/06/03 12:54:05;;;;;;;4.35;3.10;;;;;;;;;;4995144;28;20121;-75
2023/06/03 12:56:33;;;;;;;4.40;2.90;;;;;;;;;;4993102;28;20046;-77
2023/06/03 12:59:00;;;;;;;7.18;3.50;;;;;;;;;;4995367;28;20108;-76
2023/06/03 13:01:26;;;;;;;5.05;3.00;;;;;;;;;;4991007;28;20390;-76
2023/06/03 13:03:54;;;;;;;5.38;3.35;;;;;;;;;;4995250;28;20495;-75
2023/06/03 13:06:22;;;;;;;5.45;3.55;;;;;;;;;;4994731;28;20084;-74
2023/06/03 13:08:51;;;;;;;5.60;2.90;;;;;;;;;;4994522;28;20019;-75
2023/06/03 13:11:20;;;;;;;5.28;3.00;;;;;;;;;;4994746;28;20065;-74
2023/06/03 13:13:45;;;;;;;5.18;3.03;;;;;;;;;;4995211;28;20022;-74
2023/06/03 13:16:11;;;;;;;6.88;3.17;;;;;;;;;;4994670;28;20030;-75
2023/06/03 13:18:37;;;;;;;5.13;3.42;;;;;;;;;;4993605;28;20030;-74
2023/06/03 13:21:03;;;;;;;7.25;3.15;;;;;;;;;;4992723;28;20026;-72
2023/06/03 13:23:30;;;;;;;5.97;3.13;;;;;;;;;;4994517;28;20025;-73
2023/06/03 13:25:56;;;;;;;6.10;3.17;;;;;;;;;;4994574;28;20029;-75
2023/06/03 13:28:22;;;;;;;5.28;2.97;;;;;;;;;;4994498;28;20026;-77
2023/06/03 13:30:49;;;;;;;4.90;3.38;;;;;;;;;;4994093;28;20042;-75
2023/06/03 13:33:17;;;;;;;4.80;3.00;;;;;;;;;;4994390;28;20506;-76
2023/06/03 13:35:44;;;;;;;6.22;3.10;;;;;;;;;;4994905;28;20069;-77
2023/06/03 13:38:11;;;;;;;6.22;2.70;;;;;;;;;;4991432;28;20026;-78
2023/06/03 13:40:39;;;;;;;7.22;3.15;;;;;;;;;;4994706;28;20423;-76
2023/06/03 13:43:05;;;;;;;9.50;3.00;;;;;;;;;;4994465;28;20026;-75
2023/06/03 13:45:31;;;;;;;5.95;3.00;;;;;;;;;;4992783;28;20038;-77
2023/06/03 13:47:56;;;;;;;4.85;3.00;;;;;;;;;;4992659;28;20065;-76
2023/06/03 13:50:22;;;;;;;5.30;2.83;;;;;;;;;;4987422;28;20038;-76
2023/06/03 13:52:48;;;;;;;4.78;3.00;;;;;;;;;;4992835;28;20035;-75
2023/06/03 13:55:14;;;;;;;6.43;3.05;;;;;;;;;;4993880;28;20465;-75
2023/06/03 13:57:40;;;;;;;10.82;3.88;;;;;;;;;;4991464;28;20388;-74
2023/06/03 14:00:07;;;;;;;13.00;3.40;;;;;;;;;;4991164;28;20045;-74
2023/06/03 14:02:34;;;;;;;21.02;4.20;;;;;;;;;;4992758;28;20133;-74
2023/06/03 14:05:00;;;;;;;17.10;3.92;;;;;;;;;;4993983;28;20035;-73
2023/06/03 14:07:26;;;;;;;13.60;4.22;;;;;;;;;;4993386;28;20488;-73
2023/06/03 14:09:51;;;;;;;12.38;4.03;;;;;;;;;;4993353;28;20122;-72
2023/06/03 14:12:19;;;;;;;11.10;3.92;;;;;;;;;;4992527;28;20464;-74
2023/06/03 14:14:45;;;;;;;20.52;3.47;;;;;;;;;;4994459;28;20030;-73
2023/06/03 14:17:10;;;;;;;15.13;3.70;;;;;;;;;;4992562;28;20101;-74
2023/06/03 14:19:36;;;;;;;10.45;3.47;;;;;;;;;;4993747;28;20034;-74
2023/06/03 14:22:03;;;;;;;9.38;3.78;;;;;;;;;;4993762;28;20038;-73
2023/06/03 14:24:29;;;;;;;8.60;3.85;;;;;;;;;;4993791;28;20048;-74
2023/06/03 14:26:54;;;;;;;9.80;3.90;;;;;;;;;;4992495;28;20034;-73
2023/06/03 14:29:20;;;;;;;7.93;3.38;;;;;;;;;;4993711;28;20106;-73
2023/06/03 14:31:46;;;;;;;6.05;3.58;;;;;;;;;;4993882;28;20048;-74
2023/06/03 14:34:11;;;;;;;8.48;3.30;;;;;;;;;;4993590;28;20088;-74
2023/06/03 14:36:38;;;;;;;7.93;3.65;;;;;;;;;;4993270;28;20026;-73
2023/06/03 14:39:05;;;;;;;5.35;3.50;;;;;;;;;;5005080;28;20065;-73
2023/06/03 14:41:31;;;;;;;4.97;3.47;;;;;;;;;;5008274;28;20088;-72
2023/06/03 14:43:58;;;;;;;6.95;3.33;;;;;;;;;;4992814;28;20103;-73
2023/06/03 14:46:26;;;;;;;7.53;3.53;;;;;;;;;;5012457;28;20109;-73
2023/06/03 14:48:53;;;;;;;6.80;3.92;;;;;;;;;;5006714;28;20068;-73
2023/06/03 14:51:21;;;;;;;6.95;3.70;;;;;;;;;;4992703;28;20433;-72
2023/06/03 14:53:47;;;;;;;6.53;3.20;;;;;;;;;;4992632;28;20053;-71